createdAt,value
2018-12-29T00:00:26.947Z,96.73
2018-12-29T00:02:34.143Z,101.43
2018-12-29T00:04:41.523Z,102.37
2018-12-29T00:06:48.720Z,107.67
2018-12-29T00:08:56.046Z,103.53
2018-12-29T00:11:03.649Z,101.27
2018-12-29T00:13:11.752Z,109.50
2018-12-29T00:15:18.994Z,114.13
2018-12-29T00:17:26.207Z,120.37
2018-12-29T00:19:34.039Z,119.37
2018-12-29T00:21:41.201Z,114.43
2018-12-29T00:23:48.508Z,121.03
2018-12-29T00:25:56.655Z,125.77
2018-12-29T02:06:42.158Z,95.30
2018-12-29T02:08:50.333Z,112.93
2018-12-29T02:10:57.465Z,82.33
2018-12-29T02:13:05.580Z,76.73
2018-12-29T02:15:13.528Z,84.00
2018-12-29T02:17:20.776Z,87.60
2018-12-29T02:19:29.474Z,82.13
2018-12-29T02:21:36.809Z,96.30
2018-12-29T02:23:43.996Z,97.90
2018-12-29T02:25:52.366Z,82.03
2018-12-29T02:27:59.970Z,89.40
2018-12-29T02:30:07.588Z,84.27
2018-12-29T02:32:14.931Z,85.00
2018-12-29T02:34:23.054Z,83.50
2018-12-29T02:36:31.818Z,84.23
2018-12-29T02:38:40.088Z,76.93
2018-12-29T02:40:47.368Z,75.13
2018-12-29T02:42:54.577Z,82.03
2018-12-29T02:45:01.862Z,83.33
2018-12-29T02:47:09.582Z,75.67
2018-12-29T02:49:16.781Z,85.03
2018-12-29T02:51:24.492Z,94.23
2018-12-29T02:53:31.845Z,81.17
2018-12-29T02:55:39.193Z,77.37
2018-12-29T02:57:46.616Z,85.63
2018-12-29T02:59:55.200Z,89.57
2018-12-29T03:02:02.579Z,84.50
2018-12-29T03:04:10.064Z,82.13
2018-12-29T03:06:17.626Z,90.60
2018-12-29T03:08:25.126Z,94.00
2018-12-29T03:10:32.392Z,105.30
2018-12-29T03:12:39.922Z,88.93
2018-12-29T03:14:47.964Z,95.73
2018-12-29T03:16:56.318Z,90.80
2018-12-29T03:19:03.586Z,90.30
2018-12-29T03:21:12.090Z,89.37
2018-12-29T03:23:19.473Z,82.00
2018-12-29T03:25:27.230Z,87.43
2018-12-29T03:27:36.238Z,86.33
2018-12-29T03:29:43.598Z,93.07
2018-12-29T03:31:50.928Z,87.97
2018-12-29T03:33:58.112Z,95.77
2018-12-29T03:36:05.522Z,97.10
2018-12-29T03:38:12.838Z,85.70
2018-12-29T03:40:20.751Z,88.80
2018-12-29T03:42:27.967Z,90.83
2018-12-29T03:44:36.092Z,87.33
2018-12-29T03:46:43.764Z,94.37
2018-12-29T03:48:50.927Z,84.83
2018-12-29T03:50:58.228Z,80.93
2018-12-29T03:53:05.334Z,78.03
2018-12-29T03:55:13.064Z,99.90
2018-12-29T03:57:20.288Z,84.93
2018-12-29T03:59:27.648Z,89.93
2018-12-29T04:01:34.912Z,93.40
2018-12-29T04:03:42.249Z,87.70
2018-12-29T04:05:49.342Z,98.27
2018-12-29T04:07:56.441Z,99.77
2018-12-29T04:10:04.222Z,92.20
2018-12-29T04:12:19.723Z,88.03
2018-12-29T04:14:27.878Z,87.43
2018-12-29T04:16:35.323Z,90.37
2018-12-29T04:18:43.483Z,97.17
2018-12-29T04:20:50.767Z,103.43
2018-12-29T04:22:58.012Z,105.70
2018-12-29T04:25:05.635Z,104.53
2018-12-29T04:27:13.543Z,101.43
2018-12-29T04:29:20.622Z,101.97
2018-12-29T04:31:27.897Z,96.50
2018-12-29T04:33:35.382Z,99.30
2018-12-29T04:35:43.134Z,95.33
2018-12-29T04:37:50.709Z,95.00
2018-12-29T04:39:57.991Z,102.30
2018-12-29T04:42:05.606Z,98.00
2018-12-29T04:44:12.899Z,102.43
2018-12-29T04:46:20.565Z,104.83
2018-12-29T04:48:27.677Z,91.83
2018-12-29T04:50:36.131Z,86.77
2018-12-29T04:52:43.512Z,89.17
2018-12-29T04:54:51.686Z,89.70
2018-12-29T04:56:58.781Z,91.10
2018-12-29T04:59:06.702Z,94.03
2018-12-29T05:01:13.987Z,100.50
2018-12-29T05:03:21.752Z,89.00
2018-12-29T05:05:30.032Z,85.80
2018-12-29T05:07:39.516Z,96.03
2018-12-29T05:09:46.617Z,92.10
2018-12-29T05:11:55.632Z,99.43
2018-12-29T05:14:03.231Z,95.43
2018-12-29T05:16:13.001Z,89.03
2018-12-29T05:18:19.627Z,96.70
2018-12-29T05:20:28.089Z,99.67
2018-12-29T05:24:47.988Z,120.23
2018-12-29T05:26:56.051Z,111.93
2018-12-29T05:29:03.618Z,102.97
2018-12-29T05:31:12.104Z,109.50
2018-12-29T05:33:19.227Z,112.97
2018-12-29T05:35:27.518Z,112.03
2018-12-29T05:37:35.089Z,107.40
2018-12-29T05:39:42.861Z,111.20
2018-12-29T05:41:50.265Z,109.47
2018-12-29T05:43:58.113Z,114.63
2018-12-29T05:46:06.418Z,103.53
2018-12-29T05:48:14.136Z,94.30
2018-12-29T05:50:21.129Z,95.30
2018-12-29T05:52:29.174Z,91.47
2018-12-29T05:54:37.545Z,90.10
2018-12-29T05:56:44.985Z,89.20
2018-12-29T05:58:53.612Z,87.37
2018-12-29T06:01:01.677Z,97.83
2018-12-29T06:03:09.756Z,112.33
2018-12-29T06:05:17.045Z,103.07
2018-12-29T06:07:24.596Z,120.83
2018-12-29T06:09:31.971Z,101.10
2018-12-29T06:11:39.400Z,93.27
2018-12-29T06:13:47.162Z,95.53
2018-12-29T06:15:54.724Z,95.60
2018-12-29T06:18:01.683Z,107.30
2018-12-29T06:20:09.405Z,107.47
2018-12-29T06:22:16.690Z,109.30
2018-12-29T06:24:23.982Z,106.47
2018-12-29T06:26:32.062Z,92.60
2018-12-29T06:28:39.402Z,94.90
2018-12-29T06:30:46.206Z,90.00
2018-12-29T06:32:53.366Z,78.47
2018-12-29T06:35:00.843Z,73.37
2018-12-29T06:37:07.522Z,77.27
2018-12-29T06:39:14.696Z,74.80
2018-12-29T06:41:21.756Z,69.27
2018-12-29T06:43:28.436Z,67.97
2018-12-29T06:45:36.246Z,80.73
2018-12-29T06:47:43.945Z,72.67
2018-12-29T06:49:51.210Z,87.57
2018-12-29T06:51:58.577Z,73.97
2018-12-29T06:54:05.716Z,84.53
2018-12-29T06:56:13.541Z,91.60
2018-12-29T06:58:20.770Z,98.47
2018-12-29T07:00:28.011Z,97.60
2018-12-29T07:02:35.100Z,92.67
2018-12-29T07:04:43.280Z,95.87
2018-12-29T07:06:51.434Z,97.03
2018-12-29T07:08:58.588Z,99.17
2018-12-29T07:11:06.032Z,101.20
2018-12-29T07:13:14.140Z,106.43
2018-12-29T07:15:21.755Z,101.67
2018-12-29T07:17:53.823Z,106.47
2018-12-29T07:20:27.829Z,112.43
2018-12-29T07:22:53.448Z,114.03
2018-12-29T07:25:00.951Z,112.27
2018-12-29T07:27:12.480Z,105.40
2018-12-29T07:29:19.548Z,116.67
2018-12-29T07:31:26.753Z,118.37
2018-12-29T07:33:34.815Z,112.97
2018-12-29T07:35:42.738Z,108.53
2018-12-29T07:37:50.223Z,107.57
2018-12-29T07:39:57.602Z,88.57
2018-12-29T07:42:04.966Z,97.03
2018-12-29T07:44:13.676Z,91.47
2018-12-29T07:46:20.835Z,104.03
2018-12-29T07:48:28.048Z,82.23
2018-12-29T07:50:35.313Z,86.50
2018-12-29T07:52:43.187Z,85.47
2018-12-29T07:54:50.419Z,86.77
2018-12-29T07:56:57.889Z,95.57
2018-12-29T07:59:05.488Z,96.63
2018-12-29T08:01:12.585Z,99.07
2018-12-29T08:03:19.845Z,98.10
2018-12-29T08:05:27.687Z,97.13
2018-12-29T08:07:35.509Z,102.00
2018-12-29T08:09:42.910Z,96.00
2018-12-29T08:11:50.185Z,93.00
2018-12-29T08:13:57.539Z,100.17
2018-12-29T08:16:05.036Z,97.10
2018-12-29T08:18:12.388Z,106.93
2018-12-29T08:20:19.633Z,101.13
2018-12-29T08:22:26.973Z,98.53
2018-12-29T08:24:34.100Z,103.37
2018-12-29T08:26:41.314Z,102.23
2018-12-29T08:28:49.318Z,104.13
2018-12-29T08:30:56.574Z,104.77
2018-12-29T08:33:04.110Z,124.07
2018-12-29T08:35:11.438Z,105.40
2018-12-29T08:37:18.503Z,97.90
2018-12-29T08:39:26.228Z,88.93
2018-12-29T08:41:33.335Z,89.40
2018-12-29T08:43:40.592Z,89.77
2018-12-29T08:45:47.867Z,94.77
2018-12-29T08:47:55.208Z,112.67
2018-12-29T08:50:02.355Z,105.83
2018-12-29T08:52:09.384Z,107.50
2018-12-29T08:54:16.984Z,100.13
2018-12-29T08:56:24.025Z,92.57
2018-12-29T08:58:31.325Z,98.93
2018-12-29T09:00:38.431Z,102.67
2018-12-29T09:02:45.721Z,104.63
2018-12-29T09:04:52.892Z,101.23
2018-12-29T09:07:00.275Z,110.67
2018-12-29T09:09:08.769Z,111.53
2018-12-29T09:11:15.997Z,108.13
2018-12-29T09:13:23.247Z,109.50
2018-12-29T09:15:30.261Z,111.33
2018-12-29T09:17:37.616Z,111.70
2018-12-29T09:19:45.798Z,112.40
2018-12-29T09:21:53.052Z,110.80
2018-12-29T09:24:00.357Z,112.13
2018-12-29T09:26:09.431Z,113.13
2018-12-29T09:28:17.024Z,115.63
2018-12-29T09:30:23.981Z,101.77
2018-12-29T09:32:31.143Z,94.43
2018-12-29T09:34:38.553Z,88.73
2018-12-29T09:36:45.455Z,86.77
2018-12-29T09:38:52.695Z,84.13
2018-12-29T09:40:59.904Z,83.07
2018-12-29T09:43:06.945Z,96.97
2018-12-29T09:45:14.093Z,95.33
2018-12-29T09:47:21.465Z,106.43
2018-12-29T09:49:28.830Z,99.87
2018-12-29T09:51:36.292Z,104.10
2018-12-29T09:53:43.327Z,102.57
2018-12-29T09:55:50.484Z,104.30
2018-12-29T09:57:57.633Z,106.73
2018-12-29T10:00:05.129Z,105.73
2018-12-29T10:02:12.540Z,109.33
2018-12-29T10:04:19.905Z,107.30
2018-12-29T10:06:27.014Z,107.93
2018-12-29T10:08:34.078Z,111.80
2018-12-29T10:10:41.339Z,108.53
2018-12-29T10:12:48.588Z,107.43
2018-12-29T10:14:55.580Z,99.93
2018-12-29T10:17:02.903Z,92.40
2018-12-29T10:19:09.999Z,100.03
2018-12-29T10:21:17.300Z,87.43
2018-12-29T10:23:24.358Z,83.57
2018-12-29T10:25:31.786Z,84.93
2018-12-29T10:27:39.017Z,77.37
2018-12-29T10:29:46.098Z,78.67
2018-12-29T10:31:54.135Z,75.63
2018-12-29T10:34:01.302Z,84.63
2018-12-29T10:36:08.553Z,86.87
2018-12-29T10:38:15.688Z,97.13
2018-12-29T10:40:23.618Z,108.40
2018-12-29T10:42:30.738Z,112.90
2018-12-29T10:44:38.047Z,107.03
2018-12-29T10:46:45.322Z,107.10
2018-12-29T10:48:52.680Z,105.00
2018-12-29T10:50:59.712Z,111.10
2018-12-29T10:53:06.856Z,108.43
2018-12-29T10:55:14.842Z,114.43
2018-12-29T10:57:22.288Z,112.53
2018-12-29T10:59:29.639Z,112.13
2018-12-29T11:01:36.836Z,105.53
2018-12-29T11:03:44.094Z,102.00
2018-12-29T11:05:52.147Z,103.73
2018-12-29T11:07:59.138Z,86.83
2018-12-29T11:10:06.493Z,85.73
2018-12-29T11:12:14.215Z,76.53
2018-12-29T11:14:21.341Z,84.40
2018-12-29T11:16:31.205Z,91.80
2018-12-29T11:18:38.555Z,79.53
2018-12-29T11:20:45.612Z,97.13
2018-12-29T11:22:53.044Z,106.63
2018-12-29T11:25:00.331Z,106.70
2018-12-29T11:27:07.689Z,111.93
2018-12-29T11:29:14.839Z,109.57
2018-12-29T11:31:21.978Z,114.10
2018-12-29T11:33:29.159Z,110.70
2018-12-29T11:35:36.387Z,110.27
2018-12-29T11:37:44.173Z,118.90
2018-12-29T11:39:51.538Z,114.53
2018-12-29T11:41:58.723Z,114.00
2018-12-29T11:44:05.794Z,107.07
2018-12-29T11:46:13.070Z,96.60
2018-12-29T11:48:20.486Z,95.40
2018-12-29T11:50:27.741Z,88.13
2018-12-29T11:52:34.702Z,82.87
2018-12-29T11:54:42.593Z,79.47
2018-12-29T11:56:50.453Z,79.10
2018-12-29T11:58:57.519Z,73.50
2018-12-29T12:01:05.420Z,76.23
2018-12-29T12:03:13.209Z,73.73
2018-12-29T12:05:20.404Z,73.97
2018-12-29T12:07:27.678Z,105.57
2018-12-29T12:09:34.963Z,102.33
2018-12-29T12:11:42.425Z,109.63
2018-12-29T12:13:49.548Z,112.00
2018-12-29T12:15:56.724Z,118.73
2018-12-29T12:18:03.733Z,116.17
2018-12-29T12:20:11.209Z,116.17
2018-12-29T12:22:18.657Z,119.80
2018-12-29T12:24:26.217Z,115.47
2018-12-29T12:26:33.827Z,121.47
2018-12-29T12:28:40.936Z,123.50
2018-12-29T12:30:47.975Z,120.80
2018-12-29T12:32:55.636Z,116.70
2018-12-29T12:35:02.757Z,111.03
2018-12-29T12:37:09.900Z,100.47
2018-12-29T12:39:17.280Z,95.57
2018-12-29T12:41:24.489Z,85.23
2018-12-29T12:43:32.014Z,83.83
2018-12-29T12:45:39.548Z,86.57
2018-12-29T12:47:46.999Z,75.70
2018-12-29T12:49:54.113Z,77.03
2018-12-29T12:52:01.397Z,76.13
2018-12-29T12:54:09.191Z,71.47
2018-12-29T12:56:16.431Z,77.67
2018-12-29T12:58:23.540Z,73.50
2018-12-29T13:00:30.884Z,75.57
2018-12-29T13:02:38.252Z,73.50
2018-12-29T13:04:45.576Z,70.23
2018-12-29T13:06:52.683Z,76.77
2018-12-29T13:08:59.873Z,73.67
2018-12-29T13:11:07.389Z,69.63
2018-12-29T13:13:14.636Z,65.13
2018-12-29T13:15:22.869Z,64.10
2018-12-29T13:17:30.280Z,64.73
2018-12-29T13:19:37.587Z,64.30
2018-12-29T13:21:45.644Z,65.27
2018-12-29T13:23:52.990Z,60.33
2018-12-29T13:26:00.614Z,66.60
2018-12-29T13:28:07.999Z,65.10
2018-12-29T13:30:15.725Z,75.43
2018-12-29T13:32:22.807Z,105.50
2018-12-29T13:34:29.926Z,72.77
2018-12-29T13:36:37.196Z,109.67
2018-12-29T13:38:44.491Z,105.80
2018-12-29T13:40:51.871Z,112.53
2018-12-29T13:42:59.014Z,116.97
2018-12-29T13:45:08.360Z,118.10
2018-12-29T13:47:15.595Z,109.20
2018-12-29T13:49:24.252Z,99.63
2018-12-29T13:51:32.217Z,89.67
2018-12-29T13:53:39.892Z,77.90
2018-12-29T13:55:46.962Z,74.30
2018-12-29T13:57:54.661Z,69.50
2018-12-29T14:00:02.349Z,69.43
2018-12-29T14:02:10.248Z,65.70
2018-12-29T14:04:18.224Z,112.87
2018-12-29T14:06:27.553Z,106.70
2018-12-29T14:08:34.717Z,107.87
2018-12-29T14:10:42.261Z,99.03
2018-12-29T14:12:49.773Z,85.27
2018-12-29T14:14:57.301Z,78.23
2018-12-29T14:17:04.443Z,80.27
2018-12-29T14:19:11.562Z,75.90
2018-12-29T14:21:19.606Z,70.47
2018-12-29T14:23:26.948Z,64.87
2018-12-29T14:25:34.241Z,59.90
2018-12-29T14:27:41.879Z,58.67
2018-12-29T14:29:50.074Z,55.47
2018-12-29T14:31:57.994Z,52.27
2018-12-29T14:34:05.115Z,51.83
2018-12-29T14:36:12.483Z,50.47
2018-12-29T14:38:19.941Z,51.47
2018-12-29T14:40:27.021Z,51.53
2018-12-29T14:42:34.168Z,51.17
2018-12-29T14:44:41.496Z,49.77
2018-12-29T14:46:49.879Z,49.07
2018-12-29T14:48:57.348Z,49.60
2018-12-29T14:51:05.675Z,47.80
2018-12-29T14:53:13.020Z,47.20
2018-12-29T14:55:20.362Z,47.90
2018-12-29T14:57:27.426Z,48.53
2018-12-29T14:59:34.672Z,46.73
2018-12-29T15:01:42.066Z,43.93
2018-12-29T15:03:54.302Z,44.67
2018-12-29T15:06:01.781Z,41.20
2018-12-29T15:08:09.412Z,41.97
2018-12-29T15:10:16.926Z,39.73
2018-12-29T15:12:24.326Z,39.70
2018-12-29T15:14:31.959Z,41.27
2018-12-29T15:16:39.155Z,39.80
2018-12-29T15:18:46.628Z,36.70
2018-12-29T15:20:54.275Z,38.03
2018-12-29T15:23:01.545Z,37.03
2018-12-29T15:25:09.391Z,36.20
2018-12-29T15:27:17.099Z,35.17
2018-12-29T15:29:24.391Z,35.70
2018-12-29T15:31:31.764Z,35.47
2018-12-29T15:33:39.322Z,35.23
2018-12-29T15:35:46.971Z,35.40
2018-12-29T15:37:54.421Z,34.77
2018-12-29T15:40:01.715Z,35.00
2018-12-29T15:42:31.279Z,35.77
2018-12-29T15:44:39.388Z,33.63
2018-12-29T15:46:47.456Z,33.17
2018-12-29T15:48:55.146Z,34.27
2018-12-29T15:51:03.100Z,32.53
2018-12-29T15:53:10.999Z,31.07
2018-12-29T15:55:24.754Z,30.70
2018-12-29T15:57:32.569Z,29.47
2018-12-29T15:59:40.991Z,27.60
2018-12-29T16:01:48.440Z,27.57
2018-12-29T16:03:55.488Z,28.10
2018-12-29T16:06:06.092Z,27.73
2018-12-29T16:08:13.633Z,27.20
2018-12-29T16:10:20.929Z,29.00
2018-12-29T16:12:28.263Z,27.67
2018-12-29T16:14:35.745Z,27.83
2018-12-29T16:16:42.993Z,27.63
2018-12-29T16:19:04.035Z,26.23
2018-12-29T16:21:11.515Z,26.57
2018-12-29T16:23:19.135Z,26.93
2018-12-29T16:25:27.078Z,26.87
2018-12-29T16:27:34.710Z,25.67
2018-12-29T16:29:42.819Z,25.43
2018-12-29T16:31:50.742Z,25.73
2018-12-29T16:36:11.416Z,28.50
2018-12-29T16:38:18.999Z,28.17
2018-12-29T16:40:26.479Z,27.47
2018-12-29T16:42:52.284Z,26.67
2018-12-29T16:45:00.177Z,27.17
2018-12-29T16:47:08.842Z,25.20
2018-12-29T16:49:16.832Z,26.40
2018-12-29T16:51:25.891Z,25.07
2018-12-29T16:53:33.626Z,25.73
2018-12-29T16:55:41.429Z,24.47
2018-12-29T16:58:10.260Z,24.87
2018-12-29T17:00:22.819Z,24.47
2018-12-29T17:04:55.900Z,23.90
2018-12-29T17:07:14.611Z,22.63
2018-12-29T17:09:21.787Z,22.37
2018-12-29T17:11:28.797Z,20.37
2018-12-29T17:13:37.890Z,20.53
2018-12-29T17:15:46.859Z,20.37
2018-12-29T17:18:00.718Z,19.70
2018-12-29T17:20:12.935Z,19.73
2018-12-29T17:22:24.557Z,19.43
2018-12-29T17:24:33.829Z,19.73
2018-12-29T17:26:42.998Z,19.87
2018-12-29T17:28:50.308Z,19.23
2018-12-29T17:31:01.170Z,18.63
2018-12-29T17:33:09.015Z,19.10
2018-12-29T17:35:19.371Z,19.67
2018-12-29T17:37:28.333Z,19.03
2018-12-29T17:39:36.465Z,19.13
2018-12-29T17:41:46.493Z,19.10
2018-12-29T17:43:53.856Z,17.90
2018-12-29T17:46:10.809Z,19.70
2018-12-29T17:48:20.347Z,18.00
2018-12-29T17:50:29.503Z,17.37
2018-12-29T17:52:41.915Z,17.37
2018-12-29T17:54:52.001Z,16.67
2018-12-29T17:57:02.336Z,16.83
2018-12-29T17:59:11.034Z,17.13
2018-12-29T18:01:32.017Z,17.27
2018-12-29T18:03:40.374Z,15.90
2018-12-29T18:06:10.916Z,16.30
2018-12-29T18:08:24.991Z,17.30
2018-12-29T18:10:36.020Z,16.97
2018-12-29T18:12:51.281Z,17.10
2018-12-29T18:15:01.583Z,16.00
2018-12-29T18:17:15.114Z,16.07
2018-12-29T18:19:30.480Z,15.43
2018-12-29T18:21:34.831Z,14.97
2018-12-29T18:23:43.691Z,15.83
2018-12-29T18:26:10.858Z,15.43
2018-12-29T18:28:16.859Z,15.03
2018-12-29T18:30:26.066Z,15.07
2018-12-29T18:32:33.366Z,14.50
2018-12-29T18:34:42.023Z,14.03
2018-12-29T18:36:54.241Z,14.50
2018-12-29T18:39:05.312Z,13.77
2018-12-29T18:41:16.256Z,13.40
2018-12-29T18:43:23.527Z,14.23
2018-12-29T18:45:45.180Z,14.77
2018-12-29T18:47:54.036Z,12.97
2018-12-29T18:50:04.053Z,14.07
2018-12-29T18:52:13.468Z,14.70
2018-12-29T18:54:22.398Z,15.10
2018-12-29T18:56:33.692Z,13.97
2018-12-29T18:58:42.521Z,14.53
2018-12-29T19:00:51.761Z,14.10
2018-12-29T19:03:01.907Z,14.30
2018-12-29T19:05:36.290Z,14.00
2018-12-29T19:07:43.534Z,15.03
2018-12-29T19:09:51.158Z,14.77
2018-12-29T19:12:11.321Z,14.67
2018-12-29T19:14:17.771Z,14.57
2018-12-29T19:16:28.245Z,13.97
2018-12-29T19:18:41.999Z,13.90
2018-12-29T19:20:52.029Z,12.87
2018-12-29T19:23:01.905Z,13.47
2018-12-29T19:25:11.364Z,13.10
2018-12-29T19:27:33.024Z,13.63
2018-12-29T19:29:46.208Z,12.87
2018-12-29T19:32:03.322Z,13.27
2018-12-29T19:34:44.465Z,12.90
2018-12-29T19:36:25.103Z,12.47
2018-12-29T19:38:34.520Z,12.47
2018-12-29T19:40:41.775Z,12.67
2018-12-29T19:42:55.076Z,11.13
2018-12-29T19:45:06.908Z,12.13
2018-12-29T19:47:19.441Z,11.60
2018-12-29T19:49:26.833Z,11.43
2018-12-29T19:51:35.239Z,10.63
2018-12-29T19:53:43.813Z,11.17
2018-12-29T19:55:54.927Z,10.97
2018-12-29T19:58:02.942Z,10.77
2018-12-29T20:00:14.000Z,9.63
2018-12-29T20:02:22.265Z,9.50
2018-12-29T20:04:46.039Z,10.20
2018-12-29T20:06:58.136Z,17.10
2018-12-29T20:09:10.743Z,13.70
2018-12-29T20:11:20.714Z,30.50
2018-12-29T20:13:27.800Z,19.37
2018-12-29T20:15:36.571Z,30.17
2018-12-29T20:17:43.722Z,21.73
2018-12-29T20:19:50.883Z,27.80
2018-12-29T20:21:58.793Z,41.63
2018-12-29T20:24:07.074Z,41.23
2018-12-29T20:26:17.115Z,44.20
2018-12-29T20:28:24.911Z,46.83
2018-12-29T20:30:32.823Z,42.10
2018-12-29T20:32:40.120Z,48.60
2018-12-29T20:34:47.349Z,56.00
2018-12-29T20:36:55.551Z,53.47
2018-12-29T20:39:02.740Z,49.67
2018-12-29T20:41:10.084Z,46.27
2018-12-29T20:43:17.977Z,51.27
2018-12-29T20:45:25.135Z,49.37
2018-12-29T20:47:34.782Z,69.73
2018-12-29T20:49:43.328Z,64.33
2018-12-29T20:51:51.416Z,66.47
2018-12-29T20:53:59.985Z,61.00
2018-12-29T20:56:09.279Z,66.80
2018-12-29T20:58:21.414Z,69.63
2018-12-29T21:00:28.490Z,69.50
2018-12-29T21:02:35.886Z,68.33
2018-12-29T21:04:44.488Z,67.70
2018-12-29T21:06:52.330Z,72.07
2018-12-29T21:08:59.489Z,69.80
2018-12-29T21:11:09.859Z,78.00
2018-12-29T21:13:20.805Z,76.07
2018-12-29T21:15:31.449Z,73.93
2018-12-29T21:17:42.521Z,69.97
2018-12-29T21:19:54.693Z,65.63
2018-12-29T21:22:04.886Z,63.60
2018-12-29T21:24:19.597Z,60.37
2018-12-29T21:26:38.427Z,51.67
2018-12-29T21:28:50.717Z,55.30
2018-12-29T21:31:01.111Z,51.23
2018-12-29T21:33:10.219Z,60.73
2018-12-29T21:35:24.206Z,55.70
2018-12-29T21:37:39.125Z,78.43
2018-12-29T21:39:54.760Z,68.07
2018-12-29T21:42:03.257Z,67.30
2018-12-29T21:44:13.202Z,67.40
2018-12-29T21:46:23.482Z,72.43
2018-12-29T21:48:33.610Z,69.10
2018-12-29T21:50:53.133Z,70.43
2018-12-29T21:53:04.532Z,78.00
2018-12-29T21:55:12.083Z,72.00
2018-12-29T21:57:19.237Z,73.30
2018-12-29T21:59:31.876Z,80.80
2018-12-29T22:01:41.412Z,81.97
2018-12-29T22:04:11.052Z,65.90
2018-12-29T22:06:28.677Z,66.30
2018-12-29T22:08:44.259Z,72.50
2018-12-29T22:10:56.109Z,82.77
2018-12-29T22:13:03.646Z,88.23
2018-12-29T22:15:11.642Z,80.77
2018-12-29T22:17:18.973Z,88.23
2018-12-29T22:19:36.559Z,81.37
2018-12-29T22:21:48.525Z,72.70
2018-12-29T22:23:55.303Z,77.27
2018-12-29T22:26:07.697Z,75.80
2018-12-29T22:28:15.138Z,68.70
2018-12-29T22:30:22.995Z,72.40
2018-12-29T22:32:31.921Z,61.80
2018-12-29T22:34:42.643Z,71.53
2018-12-29T22:36:54.665Z,75.00
2018-12-29T22:39:01.934Z,79.80
2018-12-29T22:42:46.438Z,82.50
2018-12-29T22:43:21.318Z,86.87
2018-12-29T22:45:31.312Z,88.47
2018-12-29T22:47:39.315Z,87.50
2018-12-29T22:49:47.880Z,88.60
2018-12-29T22:51:58.693Z,86.27
2018-12-29T22:54:08.803Z,85.13
2018-12-29T22:56:19.643Z,90.70
2018-12-29T22:58:39.681Z,88.97
2018-12-29T23:00:49.488Z,90.40
2018-12-29T23:02:57.533Z,89.43
2018-12-29T23:05:04.842Z,88.93
2018-12-29T23:07:12.385Z,94.70
2018-12-29T23:09:19.706Z,95.70
2018-12-29T23:11:26.913Z,83.13
2018-12-29T23:13:38.114Z,79.03
2018-12-29T23:15:55.985Z,77.37
2018-12-29T23:18:07.559Z,80.20
2018-12-29T23:20:31.868Z,83.10
2018-12-29T23:22:45.035Z,92.70
2018-12-29T23:24:56.763Z,82.93
2018-12-29T23:27:10.220Z,88.33
2018-12-29T23:29:30.155Z,83.53
2018-12-29T23:31:38.560Z,94.00
2018-12-29T23:33:46.579Z,88.77
2018-12-29T23:35:59.859Z,88.90
2018-12-29T23:38:12.351Z,90.77
2018-12-29T23:40:22.410Z,103.50
2018-12-29T23:42:42.418Z,76.00
2018-12-29T23:44:54.369Z,81.57
2018-12-29T23:47:07.962Z,80.43
2018-12-29T23:49:17.323Z,84.60
2018-12-29T23:51:33.470Z,97.70
2018-12-29T23:53:42.253Z,97.63
2018-12-29T23:55:54.955Z,90.20
2018-12-29T23:58:05.819Z,98.57
